Time,TemperatureF,DewpointF,PressureIn,WindDirection,WindDirectionDegrees,WindSpeedMPH,WindSpeedGustMPH,Humidity,HourlyPrecipIn,Conditions,Clouds,dailyrainin,SoftwareType,DateUTC
2013-02-24 00:01:00,38.0,37.0,-100.00,SSE,166,1.0,-999.0,96,0.00,,,-99.99,,2013-02-24 08:01:00,
2013-02-24 00:11:00,38.0,37.0,-100.00,SSE,166,1.0,-999.0,96,0.00,,,-99.99,,2013-02-24 08:11:00,
2013-02-24 00:22:00,38.0,37.0,-100.00,SSE,166,1.0,-999.0,96,0.00,,,-99.99,,2013-02-24 08:22:00,
2013-02-24 00:30:00,39.0,37.0,-100.00,South,174,3.0,-999.0,95,0.00,,,-99.99,,2013-02-24 08:30:00,
2013-02-24 00:54:00,39.0,37.0,-100.00,South,174,3.0,-999.0,95,0.00,,,-99.99,,2013-02-24 08:54:00,
2013-02-24 01:01:00,39.0,37.0,-100.00,South,174,3.0,-999.0,95,0.00,,,-99.99,,2013-02-24 09:01:00,
2013-02-24 01:11:00,39.0,37.0,-100.00,South,174,3.0,-999.0,95,0.00,,,-99.99,,2013-02-24 09:11:00,
2013-02-24 01:21:00,39.0,37.0,-100.00,South,174,3.0,-999.0,95,0.00,,,-99.99,,2013-02-24 09:21:00,
2013-02-24 01:30:00,39.0,37.0,-100.00,SSE,167,1.0,-999.0,95,0.00,,,-99.99,,2013-02-24 09:30:00,
2013-02-24 01:52:00,39.0,37.0,-100.00,SSE,167,1.0,-999.0,95,0.00,,,-99.99,,2013-02-24 09:52:00,
2013-02-24 02:01:00,39.0,37.0,-100.00,SSE,167,1.0,-999.0,95,0.00,,,-99.99,,2013-02-24 10:01:00,
2013-02-24 02:11:00,39.0,37.0,-100.00,SSE,167,1.0,-999.0,95,0.00,,,-99.99,,2013-02-24 10:11:00,
2013-02-24 02:21:00,39.0,37.0,-100.00,SSE,167,1.0,-999.0,95,0.00,,,-99.99,,2013-02-24 10:21:00,
2013-02-24 02:30:00,38.0,36.0,-100.00,South,172,3.0,-999.0,95,0.00,,,-99.99,,2013-02-24 10:30:00,
2013-02-24 02:52:00,38.0,36.0,-100.00,South,172,3.0,-999.0,95,0.00,,,-99.99,,2013-02-24 10:52:00,
2013-02-24 03:01:00,38.0,36.0,-100.00,South,172,3.0,-999.0,95,0.00,,,-99.99,,2013-02-24 11:01:00,
2013-02-24 03:11:00,38.0,36.0,-100.00,South,172,3.0,-999.0,95,0.00,,,-99.99,,2013-02-24 11:11:00,
2013-02-24 03:21:00,38.0,36.0,-100.00,South,172,3.0,-999.0,95,0.00,,,-99.99,,2013-02-24 11:21:00,
2013-02-24 03:30:00,36.0,35.0,-100.00,South,176,4.0,-999.0,96,0.00,,,-99.99,,2013-02-24 11:30:00,
2013-02-24 03:53:00,36.0,35.0,-100.00,South,176,4.0,-999.0,96,0.00,,,-99.99,,2013-02-24 11:53:00,
2013-02-24 04:01:00,36.0,35.0,-100.00,South,176,4.0,-999.0,96,0.00,,,-99.99,,2013-02-24 12:01:00,
2013-02-24 04:11:00,36.0,35.0,-100.00,South,176,4.0,-999.0,96,0.00,,,-99.99,,2013-02-24 12:11:00,
2013-02-24 04:21:00,36.0,35.0,-100.00,South,176,4.0,-999.0,96,0.00,,,-99.99,,2013-02-24 12:21:00,
2013-02-24 04:30:00,35.0,34.0,-100.00,South,171,4.0,-999.0,96,0.00,,,-99.99,,2013-02-24 12:30:00,
2013-02-24 04:56:00,35.0,34.0,-100.00,South,171,4.0,-999.0,96,0.00,,,-99.99,,2013-02-24 12:56:00,
2013-02-24 05:07:00,35.0,34.0,-100.00,South,171,4.0,-999.0,96,0.00,,,-99.99,,2013-02-24 13:07:00,
2013-02-24 05:15:00,35.0,34.0,-100.00,South,171,4.0,-999.0,96,0.00,,,-99.99,,2013-02-24 13:15:00,
2013-02-24 05:30:00,34.0,34.0,-100.00,South,178,3.0,-999.0,97,0.00,,,-99.99,,2013-02-24 13:30:00,
2013-02-24 05:54:00,34.0,34.0,-100.00,South,178,3.0,-999.0,97,0.00,,,-99.99,,2013-02-24 13:54:00,
2013-02-24 06:03:00,34.0,34.0,-100.00,South,178,3.0,-999.0,97,0.00,,,-99.99,,2013-02-24 14:03:00,
2013-02-24 06:12:00,34.0,34.0,-100.00,South,178,3.0,-999.0,97,0.00,,,-99.99,,2013-02-24 14:12:00,
2013-02-24 06:23:00,34.0,34.0,-100.00,South,178,3.0,-999.0,97,0.00,,,-99.99,,2013-02-24 14:23:00,
2013-02-24 06:30:00,33.0,33.0,-100.00,South,172,2.0,-999.0,98,0.00,,,-99.99,,2013-02-24 14:30:00,
2013-02-24 06:54:00,33.0,33.0,-100.00,South,172,2.0,-999.0,98,0.00,,,-99.99,,2013-02-24 14:54:00,
2013-02-24 07:02:00,33.0,33.0,-100.00,South,172,2.0,-999.0,98,0.00,,,-99.99,,2013-02-24 15:02:00,
2013-02-24 07:12:00,33.0,33.0,-100.00,South,172,2.0,-999.0,98,0.00,,,-99.99,,2013-02-24 15:12:00,
2013-02-24 07:22:00,33.0,33.0,-100.00,South,172,2.0,-999.0,98,0.00,,,-99.99,,2013-02-24 15:22:00,
2013-02-24 07:30:00,33.0,32.0,-100.00,South,172,3.0,-999.0,98,0.00,,,-99.99,,2013-02-24 15:30:00,
2013-02-24 07:53:00,33.0,32.0,-100.00,South,172,3.0,-999.0,98,0.00,,,-99.99,,2013-02-24 15:53:00,
2013-02-24 08:01:00,33.0,32.0,-100.00,South,172,3.0,-999.0,98,0.00,,,-99.99,,2013-02-24 16:01:00,
2013-02-24 08:11:00,33.0,32.0,-100.00,South,172,3.0,-999.0,98,0.00,,,-99.99,,2013-02-24 16:11:00,
2013-02-24 08:21:00,33.0,32.0,-100.00,South,172,3.0,-999.0,98,0.00,,,-99.99,,2013-02-24 16:21:00,
2013-02-24 08:30:00,34.0,33.0,-100.00,South,175,3.0,-999.0,98,0.00,,,-99.99,,2013-02-24 16:30:00,
2013-02-24 08:52:00,34.0,33.0,-100.00,South,175,3.0,-999.0,98,0.00,,,-99.99,,2013-02-24 16:52:00,
2013-02-24 09:01:00,34.0,33.0,-100.00,South,175,3.0,-999.0,98,0.00,,,-99.99,,2013-02-24 17:01:00,
2013-02-24 09:11:00,34.0,33.0,-100.00,South,175,3.0,-999.0,98,0.00,,,-99.99,,2013-02-24 17:11:00,
2013-02-24 09:21:00,34.0,33.0,-100.00,South,175,3.0,-999.0,98,0.00,,,-99.99,,2013-02-24 17:21:00,
2013-02-24 09:30:00,37.0,35.0,-100.00,South,175,3.0,-999.0,95,0.00,,,-99.99,,2013-02-24 17:30:00,
2013-02-24 09:52:00,37.0,35.0,-100.00,South,175,3.0,-999.0,95,0.00,,,-99.99,,2013-02-24 17:52:00,
2013-02-24 10:01:00,37.0,35.0,-100.00,South,175,3.0,-999.0,95,0.00,,,-99.99,,2013-02-24 18:01:00,
2013-02-24 10:11:00,37.0,35.0,-100.00,South,175,3.0,-999.0,95,0.00,,,-99.99,,2013-02-24 18:11:00,
2013-02-24 10:21:00,37.0,35.0,-100.00,South,175,3.0,-999.0,95,0.00,,,-99.99,,2013-02-24 18:21:00,
2013-02-24 10:30:00,42.0,38.0,-100.00,South,174,2.0,-999.0,85,0.00,,,-99.99,,2013-02-24 18:30:00,
2013-02-24 10:52:00,42.0,38.0,-100.00,South,174,2.0,-999.0,85,0.00,,,-99.99,,2013-02-24 18:52:00,
2013-02-24 11:01:00,42.0,38.0,-100.00,South,174,2.0,-999.0,85,0.00,,,-99.99,,2013-02-24 19:01:00,
2013-02-24 11:11:00,42.0,38.0,-100.00,South,174,2.0,-999.0,85,0.00,,,-99.99,,2013-02-24 19:11:00,
2013-02-24 11:22:00,42.0,38.0,-100.00,South,174,2.0,-999.0,85,0.00,,,-99.99,,2013-02-24 19:22:00,
2013-02-24 11:30:00,49.0,39.0,-100.00,SE,145,1.0,-999.0,68,0.00,,,-99.99,,2013-02-24 19:30:00,
2013-02-24 11:52:00,49.0,39.0,-100.00,SE,145,1.0,-999.0,68,0.00,,,-99.99,,2013-02-24 19:52:00,
2013-02-24 12:02:00,49.0,39.0,-100.00,SE,145,1.0,-999.0,68,0.00,,,-99.99,,2013-02-24 20:02:00,
2013-02-24 12:11:00,49.0,39.0,-100.00,SE,145,1.0,-999.0,68,0.00,,,-99.99,,2013-02-24 20:11:00,
2013-02-24 12:21:00,49.0,39.0,-100.00,SE,145,1.0,-999.0,68,0.00,,,-99.99,,2013-02-24 20:21:00,
2013-02-24 12:30:00,49.0,35.0,-100.00,North,9,4.0,-999.0,59,0.00,,,-99.99,,2013-02-24 20:30:00,
2013-02-24 12:52:00,49.0,35.0,-100.00,North,9,4.0,-999.0,59,0.00,,,-99.99,,2013-02-24 20:52:00,
2013-02-24 13:01:00,49.0,35.0,-100.00,North,9,4.0,-999.0,59,0.00,,,-99.99,,2013-02-24 21:01:00,
2013-02-24 13:11:00,49.0,35.0,-100.00,North,9,4.0,-999.0,59,0.00,,,-99.99,,2013-02-24 21:11:00,
2013-02-24 13:21:00,49.0,35.0,-100.00,North,9,4.0,-999.0,59,0.00,,,-99.99,,2013-02-24 21:21:00,
2013-02-24 13:30:00,48.0,36.0,-100.00,North,9,3.0,-999.0,62,0.00,,,-99.99,,2013-02-24 21:30:00,
2013-02-24 13:52:00,48.0,36.0,-100.00,North,9,3.0,-999.0,62,0.00,,,-99.99,,2013-02-24 21:52:00,
2013-02-24 14:01:00,48.0,36.0,-100.00,North,9,3.0,-999.0,62,0.00,,,-99.99,,2013-02-24 22:01:00,
2013-02-24 14:11:00,48.0,36.0,-100.00,North,9,3.0,-999.0,62,0.00,,,-99.99,,2013-02-24 22:11:00,
2013-02-24 14:21:00,48.0,36.0,-100.00,North,9,3.0,-999.0,62,0.00,,,-99.99,,2013-02-24 22:21:00,
2013-02-24 14:30:00,48.0,37.0,-100.00,North,6,3.0,-999.0,65,0.00,,,-99.99,,2013-02-24 22:30:00,
2013-02-24 14:52:00,48.0,37.0,-100.00,North,6,3.0,-999.0,65,0.00,,,-99.99,,2013-02-24 22:52:00,
2013-02-24 15:02:00,48.0,37.0,-100.00,North,6,3.0,-999.0,65,0.00,,,-99.99,,2013-02-24 23:02:00,
2013-02-24 15:11:00,48.0,37.0,-100.00,North,6,3.0,-999.0,65,0.00,,,-99.99,,2013-02-24 23:11:00,
2013-02-24 15:21:00,48.0,37.0,-100.00,North,6,3.0,-999.0,65,0.00,,,-99.99,,2013-02-24 23:21:00,
2013-02-24 15:30:00,48.0,37.0,-100.00,NNE,20,2.0,-999.0,65,0.00,,,-99.99,,2013-02-24 23:30:00,
2013-02-24 15:52:00,48.0,37.0,-100.00,NNE,20,2.0,-999.0,65,0.00,,,-99.99,,2013-02-24 23:52:00,
2013-02-24 16:01:00,48.0,37.0,-100.00,NNE,20,2.0,-999.0,65,0.00,,,-99.99,,2013-02-25 00:01:00,
2013-02-24 16:11:00,48.0,37.0,-100.00,NNE,20,2.0,-999.0,65,0.00,,,-99.99,,2013-02-25 00:11:00,
2013-02-24 16:21:00,48.0,37.0,-100.00,NNE,20,2.0,-999.0,65,0.00,,,-99.99,,2013-02-25 00:21:00,
2013-02-24 16:30:00,48.0,38.0,-100.00,South,181,2.0,-999.0,69,0.00,,,-99.99,,2013-02-25 00:30:00,
2013-02-24 16:52:00,48.0,38.0,-100.00,South,181,2.0,-999.0,69,0.00,,,-99.99,,2013-02-25 00:52:00,
2013-02-24 17:01:00,48.0,38.0,-100.00,South,181,2.0,-999.0,69,0.00,,,-99.99,,2013-02-25 01:01:00,
2013-02-24 17:11:00,48.0,38.0,-100.00,South,181,2.0,-999.0,69,0.00,,,-99.99,,2013-02-25 01:11:00,
2013-02-24 17:21:00,48.0,38.0,-100.00,South,181,2.0,-999.0,69,0.00,,,-99.99,,2013-02-25 01:21:00,
2013-02-24 17:30:00,46.0,39.0,-100.00,SSW,200,2.0,-999.0,76,0.00,,,-99.99,,2013-02-25 01:30:00,
2013-02-24 17:52:00,46.0,39.0,-100.00,SSW,200,2.0,-999.0,76,0.00,,,-99.99,,2013-02-25 01:52:00,
2013-02-24 18:01:00,46.0,39.0,-100.00,SSW,200,2.0,-999.0,76,0.00,,,-99.99,,2013-02-25 02:01:00,
2013-02-24 18:11:00,46.0,39.0,-100.00,SSW,200,2.0,-999.0,76,0.00,,,-99.99,,2013-02-25 02:11:00,
2013-02-24 18:21:00,46.0,39.0,-100.00,SSW,200,2.0,-999.0,76,0.00,,,-99.99,,2013-02-25 02:21:00,
2013-02-24 18:30:00,43.0,39.0,-100.00,SSW,209,1.0,-999.0,84,0.00,,,-99.99,,2013-02-25 02:30:00,
2013-02-24 18:52:00,43.0,39.0,-100.00,SSW,209,1.0,-999.0,84,0.00,,,-99.99,,2013-02-25 02:52:00,
2013-02-24 19:01:00,43.0,39.0,-100.00,SSW,209,1.0,-999.0,84,0.00,,,-99.99,,2013-02-25 03:01:00,
2013-02-24 19:11:00,43.0,39.0,-100.00,SSW,209,1.0,-999.0,84,0.00,,,-99.99,,2013-02-25 03:11:00,
2013-02-24 19:21:00,43.0,39.0,-100.00,SSW,209,1.0,-999.0,84,0.00,,,-99.99,,2013-02-25 03:21:00,
2013-02-24 19:30:00,43.0,40.0,-100.00,South,174,1.0,-999.0,89,0.00,,,-99.99,,2013-02-25 03:30:00,
2013-02-24 19:52:00,43.0,40.0,-100.00,South,174,1.0,-999.0,89,0.00,,,-99.99,,2013-02-25 03:52:00,
2013-02-24 20:01:00,43.0,40.0,-100.00,South,174,1.0,-999.0,89,0.00,,,-99.99,,2013-02-25 04:01:00,
2013-02-24 20:11:00,43.0,40.0,-100.00,South,174,1.0,-999.0,89,0.00,,,-99.99,,2013-02-25 04:11:00,
2013-02-24 20:21:00,43.0,40.0,-100.00,South,174,1.0,-999.0,89,0.00,,,-99.99,,2013-02-25 04:21:00,
2013-02-24 20:30:00,44.0,40.0,-100.00,South,178,5.0,-999.0,86,0.00,,,-99.99,,2013-02-25 04:30:00,
2013-02-24 20:52:00,44.0,40.0,-100.00,South,178,5.0,-999.0,86,0.00,,,-99.99,,2013-02-25 04:52:00,
2013-02-24 21:01:00,44.0,40.0,-100.00,South,178,5.0,-999.0,86,0.00,,,-99.99,,2013-02-25 05:01:00,
2013-02-24 21:11:00,44.0,40.0,-100.00,South,178,5.0,-999.0,86,0.00,,,-99.99,,2013-02-25 05:11:00,
2013-02-24 21:22:00,44.0,40.0,-100.00,South,178,5.0,-999.0,86,0.00,,,-99.99,,2013-02-25 05:22:00,
2013-02-24 21:30:00,44.0,40.0,-100.00,South,174,4.0,-999.0,86,0.00,,,-99.99,,2013-02-25 05:30:00,
2013-02-24 21:52:00,44.0,40.0,-100.00,South,174,4.0,-999.0,86,0.00,,,-99.99,,2013-02-25 05:52:00,
2013-02-24 22:02:00,44.0,40.0,-100.00,South,174,4.0,-999.0,86,0.00,,,-99.99,,2013-02-25 06:02:00,
2013-02-24 22:11:00,44.0,40.0,-100.00,South,174,4.0,-999.0,86,0.00,,,-99.99,,2013-02-25 06:11:00,
2013-02-24 22:21:00,44.0,40.0,-100.00,South,174,4.0,-999.0,86,0.00,,,-99.99,,2013-02-25 06:21:00,
2013-02-24 22:30:00,45.0,42.0,-100.00,South,177,6.0,-999.0,90,0.00,,,-99.99,,2013-02-25 06:30:00,
2013-02-24 22:52:00,45.0,42.0,-100.00,South,177,6.0,-999.0,90,0.00,,,-99.99,,2013-02-25 06:52:00,
2013-02-24 23:01:00,45.0,42.0,-100.00,South,177,6.0,-999.0,90,0.00,,,-99.99,,2013-02-25 07:01:00,
2013-02-24 23:11:00,45.0,42.0,-100.00,South,177,6.0,-999.0,90,0.00,,,-99.99,,2013-02-25 07:11:00,
2013-02-24 23:21:00,45.0,42.0,-100.00,South,177,6.0,-999.0,90,0.00,,,-99.99,,2013-02-25 07:21:00,
2013-02-24 23:30:00,46.0,43.0,-100.00,South,178,8.0,-999.0,92,0.00,,,-99.99,,2013-02-25 07:30:00,
2013-02-24 23:52:00,46.0,43.0,-100.00,South,178,8.0,-999.0,92,0.00,,,-99.99,,2013-02-25 07:52:00,